sensor_id;sensor_type;location;lat;lon;timestamp;temperature;humidity
13332;DHT22;6735;51.456;12.626;2023-05-10T00:01:40;11.60;60.50
13332;DHT22;6735;51.456;12.626;2023-05-10T00:04:05;11.60;60.50
13332;DHT22;6735;51.456;12.626;2023-05-10T00:06:31;11.60;60.60
13332;DHT22;6735;51.456;12.626;2023-05-10T00:08:57;11.50;60.60
13332;DHT22;6735;51.456;12.626;2023-05-10T00:11:23;11.50;61.10
13332;DHT22;6735;51.456;12.626;2023-05-10T00:13:48;11.40;61.20
13332;DHT22;6735;51.456;12.626;2023-05-10T00:16:14;11.40;61.50
13332;DHT22;6735;51.456;12.626;2023-05-10T00:18:39;11.30;61.90
13332;DHT22;6735;51.456;12.626;2023-05-10T00:21:05;11.20;61.70
13332;DHT22;6735;51.456;12.626;2023-05-10T00:23:31;11.20;62.20
13332;DHT22;6735;51.456;12.626;2023-05-10T00:25:56;11.10;62.40
13332;DHT22;6735;51.456;12.626;2023-05-10T00:28:22;11.10;62.80
13332;DHT22;6735;51.456;12.626;2023-05-10T00:30:48;11.10;62.90
13332;DHT22;6735;51.456;12.626;2023-05-10T00:33:13;11.00;62.80
13332;DHT22;6735;51.456;12.626;2023-05-10T00:35:39;11.00;63.00
13332;DHT22;6735;51.456;12.626;2023-05-10T00:38:04;11.00;63.40
13332;DHT22;6735;51.456;12.626;2023-05-10T00:40:30;11.00;63.20
13332;DHT22;6735;51.456;12.626;2023-05-10T00:42:56;11.00;63.00
13332;DHT22;6735;51.456;12.626;2023-05-10T00:45:22;11.00;63.00
13332;DHT22;6735;51.456;12.626;2023-05-10T00:47:48;11.00;63.30
13332;DHT22;6735;51.456;12.626;2023-05-10T00:50:14;10.90;63.60
13332;DHT22;6735;51.456;12.626;2023-05-10T00:52:40;10.90;63.80
13332;DHT22;6735;51.456;12.626;2023-05-10T00:55:07;10.90;63.60
13332;DHT22;6735;51.456;12.626;2023-05-10T00:57:33;10.90;63.40
13332;DHT22;6735;51.456;12.626;2023-05-10T00:59:59;10.90;63.60
13332;DHT22;6735;51.456;12.626;2023-05-10T01:02:24;10.90;64.20
13332;DHT22;6735;51.456;12.626;2023-05-10T01:04:50;10.90;63.70
13332;DHT22;6735;51.456;12.626;2023-05-10T01:07:17;10.90;64.00
13332;DHT22;6735;51.456;12.626;2023-05-10T01:09:42;10.90;63.80
13332;DHT22;6735;51.456;12.626;2023-05-10T01:12:08;10.90;64.00
13332;DHT22;6735;51.456;12.626;2023-05-10T01:14:34;10.90;64.00
13332;DHT22;6735;51.456;12.626;2023-05-10T01:17:01;10.90;64.10
13332;DHT22;6735;51.456;12.626;2023-05-10T01:19:29;10.90;64.10
13332;DHT22;6735;51.456;12.626;2023-05-10T01:22:05;10.90;64.00
13332;DHT22;6735;51.456;12.626;2023-05-10T01:33:01;10.80;64.80
13332;DHT22;6735;51.456;12.626;2023-05-10T01:35:42;10.90;64.20
13332;DHT22;6735;51.456;12.626;2023-05-10T01:38:29;10.90;64.20
13332;DHT22;6735;51.456;12.626;2023-05-10T01:41:07;10.90;64.20
13332;DHT22;6735;51.456;12.626;2023-05-10T01:43:52;10.80;64.40
13332;DHT22;6735;51.456;12.626;2023-05-10T01:46:34;10.80;64.80
13332;DHT22;6735;51.456;12.626;2023-05-10T01:49:01;10.80;64.40
13332;DHT22;6735;51.456;12.626;2023-05-10T01:51:38;10.80;64.80
13332;DHT22;6735;51.456;12.626;2023-05-10T01:54:04;10.80;64.40
13332;DHT22;6735;51.456;12.626;2023-05-10T01:56:33;10.70;64.90
13332;DHT22;6735;51.456;12.626;2023-05-10T01:59:00;10.80;64.70
13332;DHT22;6735;51.456;12.626;2023-05-10T02:01:30;10.70;65.10
13332;DHT22;6735;51.456;12.626;2023-05-10T02:03:57;10.70;65.20
13332;DHT22;6735;51.456;12.626;2023-05-10T02:06:25;10.70;65.20
13332;DHT22;6735;51.456;12.626;2023-05-10T02:08:51;10.70;65.10
13332;DHT22;6735;51.456;12.626;2023-05-10T02:11:18;10.60;65.50
13332;DHT22;6735;51.456;12.626;2023-05-10T02:13:47;10.60;65.50
13332;DHT22;6735;51.456;12.626;2023-05-10T02:16:14;10.60;65.70
13332;DHT22;6735;51.456;12.626;2023-05-10T02:18:41;10.60;65.70
13332;DHT22;6735;51.456;12.626;2023-05-10T02:21:08;10.60;65.90
13332;DHT22;6735;51.456;12.626;2023-05-10T02:23:34;10.60;65.70
13332;DHT22;6735;51.456;12.626;2023-05-10T02:26:01;10.60;65.70
13332;DHT22;6735;51.456;12.626;2023-05-10T02:28:28;10.50;66.00
13332;DHT22;6735;51.456;12.626;2023-05-10T02:30:54;10.50;66.10
13332;DHT22;6735;51.456;12.626;2023-05-10T02:33:21;10.50;66.20
13332;DHT22;6735;51.456;12.626;2023-05-10T02:35:47;10.50;66.10
13332;DHT22;6735;51.456;12.626;2023-05-10T02:38:14;10.50;66.10
13332;DHT22;6735;51.456;12.626;2023-05-10T02:40:41;10.50;66.30
13332;DHT22;6735;51.456;12.626;2023-05-10T02:43:11;10.50;66.40
13332;DHT22;6735;51.456;12.626;2023-05-10T02:45:38;10.40;66.80
13332;DHT22;6735;51.456;12.626;2023-05-10T02:48:04;10.40;66.40
13332;DHT22;6735;51.456;12.626;2023-05-10T02:50:30;10.40;66.50
13332;DHT22;6735;51.456;12.626;2023-05-10T02:53:01;10.40;66.50
13332;DHT22;6735;51.456;12.626;2023-05-10T02:55:36;10.40;66.60
13332;DHT22;6735;51.456;12.626;2023-05-10T02:58:03;10.40;66.80
13332;DHT22;6735;51.456;12.626;2023-05-10T03:00:29;10.40;67.00
13332;DHT22;6735;51.456;12.626;2023-05-10T03:02:55;10.40;66.90
13332;DHT22;6735;51.456;12.626;2023-05-10T03:05:21;10.30;67.00
13332;DHT22;6735;51.456;12.626;2023-05-10T03:07:47;10.40;67.10
13332;DHT22;6735;51.456;12.626;2023-05-10T03:10:12;10.40;67.20
13332;DHT22;6735;51.456;12.626;2023-05-10T03:15:19;10.40;67.00
13332;DHT22;6735;51.456;12.626;2023-05-10T03:17:55;10.40;67.00
13332;DHT22;6735;51.456;12.626;2023-05-10T03:20:25;10.40;67.10
13332;DHT22;6735;51.456;12.626;2023-05-10T03:22:55;10.40;67.00
13332;DHT22;6735;51.456;12.626;2023-05-10T03:25:21;10.40;67.20
13332;DHT22;6735;51.456;12.626;2023-05-10T03:27:49;10.40;67.30
13332;DHT22;6735;51.456;12.626;2023-05-10T03:30:15;10.30;67.50
13332;DHT22;6735;51.456;12.626;2023-05-10T03:32:41;10.30;67.60
13332;DHT22;6735;51.456;12.626;2023-05-10T03:35:08;10.30;67.60
13332;DHT22;6735;51.456;12.626;2023-05-10T03:37:34;10.30;67.70
13332;DHT22;6735;51.456;12.626;2023-05-10T03:40:00;10.30;67.80
13332;DHT22;6735;51.456;12.626;2023-05-10T03:42:25;10.30;67.70
13332;DHT22;6735;51.456;12.626;2023-05-10T03:44:51;10.30;67.80
13332;DHT22;6735;51.456;12.626;2023-05-10T03:47:16;10.30;67.80
13332;DHT22;6735;51.456;12.626;2023-05-10T03:49:41;10.30;67.70
13332;DHT22;6735;51.456;12.626;2023-05-10T03:52:07;10.20;67.90
13332;DHT22;6735;51.456;12.626;2023-05-10T03:54:32;10.30;67.90
13332;DHT22;6735;51.456;12.626;2023-05-10T03:56:59;10.30;68.00
13332;DHT22;6735;51.456;12.626;2023-05-10T03:59:25;10.30;68.20
13332;DHT22;6735;51.456;12.626;2023-05-10T04:01:51;10.30;67.90
13332;DHT22;6735;51.456;12.626;2023-05-10T04:04:16;10.40;68.00
13332;DHT22;6735;51.456;12.626;2023-05-10T04:06:43;10.30;68.20
13332;DHT22;6735;51.456;12.626;2023-05-10T04:09:09;10.40;68.00
13332;DHT22;6735;51.456;12.626;2023-05-10T04:11:34;10.40;68.00
13332;DHT22;6735;51.456;12.626;2023-05-10T04:14:00;10.40;68.10
13332;DHT22;6735;51.456;12.626;2023-05-10T04:16:25;10.50;68.10
13332;DHT22;6735;51.456;12.626;2023-05-10T04:18:51;10.40;68.40
13332;DHT22;6735;51.456;12.626;2023-05-10T04:21:16;10.50;68.30
13332;DHT22;6735;51.456;12.626;2023-05-10T04:23:42;10.50;68.20
13332;DHT22;6735;51.456;12.626;2023-05-10T04:26:07;10.50;68.30
13332;DHT22;6735;51.456;12.626;2023-05-10T04:28:33;10.60;68.30
13332;DHT22;6735;51.456;12.626;2023-05-10T04:33:27;10.60;68.40
13332;DHT22;6735;51.456;12.626;2023-05-10T04:35:53;10.60;68.30
13332;DHT22;6735;51.456;12.626;2023-05-10T04:38:18;10.70;68.20
13332;DHT22;6735;51.456;12.626;2023-05-10T04:40:44;10.80;68.00
13332;DHT22;6735;51.456;12.626;2023-05-10T04:43:09;10.90;67.80
13332;DHT22;6735;51.456;12.626;2023-05-10T04:45:35;11.00;67.70
13332;DHT22;6735;51.456;12.626;2023-05-10T04:48:00;11.10;67.60
13332;DHT22;6735;51.456;12.626;2023-05-10T04:50:29;11.60;66.60
13332;DHT22;6735;51.456;12.626;2023-05-10T04:52:54;12.10;65.30
13332;DHT22;6735;51.456;12.626;2023-05-10T04:55:20;12.30;64.80
13332;DHT22;6735;51.456;12.626;2023-05-10T04:57:46;13.10;63.10
13332;DHT22;6735;51.456;12.626;2023-05-10T05:00:12;14.60;59.50
13332;DHT22;6735;51.456;12.626;2023-05-10T05:02:37;15.40;56.40
13332;DHT22;6735;51.456;12.626;2023-05-10T05:05:03;16.20;55.20
13332;DHT22;6735;51.456;12.626;2023-05-10T05:07:28;16.90;54.20
13332;DHT22;6735;51.456;12.626;2023-05-10T05:09:56;17.80;51.40
13332;DHT22;6735;51.456;12.626;2023-05-10T05:12:21;17.70;52.00
13332;DHT22;6735;51.456;12.626;2023-05-10T05:14:46;17.60;52.30
13332;DHT22;6735;51.456;12.626;2023-05-10T05:17:12;17.10;52.50
13332;DHT22;6735;51.456;12.626;2023-05-10T05:19:37;17.20;51.40
13332;DHT22;6735;51.456;12.626;2023-05-10T05:22:03;18.00;51.00
13332;DHT22;6735;51.456;12.626;2023-05-10T05:24:28;18.60;49.20
13332;DHT22;6735;51.456;12.626;2023-05-10T05:26:54;19.00;47.90
13332;DHT22;6735;51.456;12.626;2023-05-10T05:29:19;19.20;47.50
13332;DHT22;6735;51.456;12.626;2023-05-10T05:31:45;18.70;47.50
13332;DHT22;6735;51.456;12.626;2023-05-10T05:34:10;19.20;47.90
13332;DHT22;6735;51.456;12.626;2023-05-10T05:36:36;19.70;46.70
13332;DHT22;6735;51.456;12.626;2023-05-10T05:39:03;19.70;46.20
13332;DHT22;6735;51.456;12.626;2023-05-10T05:41:29;20.00;45.60
13332;DHT22;6735;51.456;12.626;2023-05-10T05:43:54;20.70;44.30
13332;DHT22;6735;51.456;12.626;2023-05-10T05:46:20;20.70;43.70
13332;DHT22;6735;51.456;12.626;2023-05-10T05:48:45;21.00;43.50
13332;DHT22;6735;51.456;12.626;2023-05-10T05:51:11;21.20;42.60
13332;DHT22;6735;51.456;12.626;2023-05-10T05:53:36;21.10;41.80
13332;DHT22;6735;51.456;12.626;2023-05-10T05:56:02;21.30;42.50
13332;DHT22;6735;51.456;12.626;2023-05-10T05:58:28;21.40;41.80
13332;DHT22;6735;51.456;12.626;2023-05-10T06:00:54;21.50;42.00
13332;DHT22;6735;51.456;12.626;2023-05-10T06:03:20;22.20;40.40
13332;DHT22;6735;51.456;12.626;2023-05-10T06:05:45;22.40;40.10
13332;DHT22;6735;51.456;12.626;2023-05-10T06:08:11;22.10;38.50
13332;DHT22;6735;51.456;12.626;2023-05-10T06:10:37;21.80;39.90
13332;DHT22;6735;51.456;12.626;2023-05-10T06:13:02;21.90;39.20
13332;DHT22;6735;51.456;12.626;2023-05-10T06:15:28;21.50;39.70
13332;DHT22;6735;51.456;12.626;2023-05-10T06:17:53;21.70;40.20
13332;DHT22;6735;51.456;12.626;2023-05-10T06:20:19;21.90;39.80
13332;DHT22;6735;51.456;12.626;2023-05-10T06:22:44;22.00;39.80
13332;DHT22;6735;51.456;12.626;2023-05-10T06:25:10;22.20;39.20
13332;DHT22;6735;51.456;12.626;2023-05-10T06:27:36;22.40;39.00
13332;DHT22;6735;51.456;12.626;2023-05-10T06:30:02;22.60;38.50
13332;DHT22;6735;51.456;12.626;2023-05-10T06:32:28;22.40;38.70
13332;DHT22;6735;51.456;12.626;2023-05-10T06:34:53;22.50;38.30
13332;DHT22;6735;51.456;12.626;2023-05-10T06:37:19;22.40;38.80
13332;DHT22;6735;51.456;12.626;2023-05-10T06:39:44;22.40;38.60
13332;DHT22;6735;51.456;12.626;2023-05-10T06:42:10;22.20;38.70
13332;DHT22;6735;51.456;12.626;2023-05-10T06:44:35;21.90;39.50
13332;DHT22;6735;51.456;12.626;2023-05-10T06:47:01;21.90;39.50
13332;DHT22;6735;51.456;12.626;2023-05-10T06:49:26;22.10;39.30
13332;DHT22;6735;51.456;12.626;2023-05-10T06:51:52;21.80;39.90
13332;DHT22;6735;51.456;12.626;2023-05-10T06:54:17;21.90;39.50
13332;DHT22;6735;51.456;12.626;2023-05-10T06:56:43;21.70;40.30
13332;DHT22;6735;51.456;12.626;2023-05-10T06:59:08;21.70;40.30
13332;DHT22;6735;51.456;12.626;2023-05-10T07:01:34;21.70;40.60
13332;DHT22;6735;51.456;12.626;2023-05-10T07:03:59;22.10;40.20
13332;DHT22;6735;51.456;12.626;2023-05-10T07:06:25;21.90;40.60
13332;DHT22;6735;51.456;12.626;2023-05-10T07:08:50;21.80;40.60
13332;DHT22;6735;51.456;12.626;2023-05-10T07:11:16;21.80;40.40
13332;DHT22;6735;51.456;12.626;2023-05-10T07:13:41;21.80;40.90
13332;DHT22;6735;51.456;12.626;2023-05-10T07:16:09;22.00;40.50
13332;DHT22;6735;51.456;12.626;2023-05-10T07:18:35;21.60;41.50
13332;DHT22;6735;51.456;12.626;2023-05-10T07:21:01;21.80;41.30
13332;DHT22;6735;51.456;12.626;2023-05-10T07:23:26;21.50;41.40
13332;DHT22;6735;51.456;12.626;2023-05-10T07:25:52;21.20;42.20
13332;DHT22;6735;51.456;12.626;2023-05-10T07:28:18;20.80;43.20
13332;DHT22;6735;51.456;12.626;2023-05-10T07:30:43;20.70;43.30
13332;DHT22;6735;51.456;12.626;2023-05-10T07:33:10;20.60;43.70
13332;DHT22;6735;51.456;12.626;2023-05-10T07:35:36;20.40;44.10
13332;DHT22;6735;51.456;12.626;2023-05-10T07:38:02;20.30;44.50
13332;DHT22;6735;51.456;12.626;2023-05-10T07:40:28;20.30;44.70
13332;DHT22;6735;51.456;12.626;2023-05-10T07:42:54;20.40;44.80
13332;DHT22;6735;51.456;12.626;2023-05-10T07:45:19;20.30;44.80
13332;DHT22;6735;51.456;12.626;2023-05-10T07:47:45;20.30;44.80
13332;DHT22;6735;51.456;12.626;2023-05-10T07:50:10;20.50;44.40
13332;DHT22;6735;51.456;12.626;2023-05-10T07:52:36;20.30;44.40
13332;DHT22;6735;51.456;12.626;2023-05-10T07:55:01;20.00;44.80
13332;DHT22;6735;51.456;12.626;2023-05-10T07:57:27;19.70;45.40
13332;DHT22;6735;51.456;12.626;2023-05-10T07:59:52;19.70;45.40
13332;DHT22;6735;51.456;12.626;2023-05-10T08:02:17;19.90;45.40
13332;DHT22;6735;51.456;12.626;2023-05-10T08:04:43;19.90;45.30
13332;DHT22;6735;51.456;12.626;2023-05-10T08:07:08;19.90;45.10
13332;DHT22;6735;51.456;12.626;2023-05-10T08:09:34;19.70;45.50
13332;DHT22;6735;51.456;12.626;2023-05-10T08:11:59;19.80;45.20
13332;DHT22;6735;51.456;12.626;2023-05-10T08:14:25;20.20;44.80
13332;DHT22;6735;51.456;12.626;2023-05-10T08:16:51;20.40;44.70
13332;DHT22;6735;51.456;12.626;2023-05-10T08:19:16;20.30;45.10
13332;DHT22;6735;51.456;12.626;2023-05-10T08:21:45;20.60;44.80
13332;DHT22;6735;51.456;12.626;2023-05-10T08:24:10;21.00;44.80
13332;DHT22;6735;51.456;12.626;2023-05-10T08:26:36;21.30;44.60
13332;DHT22;6735;51.456;12.626;2023-05-10T08:29:02;21.70;44.10
13332;DHT22;6735;51.456;12.626;2023-05-10T08:31:27;21.70;43.70
13332;DHT22;6735;51.456;12.626;2023-05-10T08:33:53;21.90;43.90
13332;DHT22;6735;51.456;12.626;2023-05-10T08:36:18;21.70;43.90
13332;DHT22;6735;51.456;12.626;2023-05-10T08:38:49;21.70;44.00
13332;DHT22;6735;51.456;12.626;2023-05-10T08:41:15;21.40;44.30
13332;DHT22;6735;51.456;12.626;2023-05-10T08:43:41;21.70;43.80
13332;DHT22;6735;51.456;12.626;2023-05-10T08:46:15;22.10;43.00
13332;DHT22;6735;51.456;12.626;2023-05-10T08:48:44;22.20;43.00
13332;DHT22;6735;51.456;12.626;2023-05-10T08:51:22;22.10;43.20
13332;DHT22;6735;51.456;12.626;2023-05-10T08:53:48;22.20;43.30
13332;DHT22;6735;51.456;12.626;2023-05-10T08:56:13;22.20;43.50
13332;DHT22;6735;51.456;12.626;2023-05-10T08:58:40;22.20;43.40
13332;DHT22;6735;51.456;12.626;2023-05-10T09:01:07;22.20;43.80
13332;DHT22;6735;51.456;12.626;2023-05-10T09:03:32;21.90;44.50
13332;DHT22;6735;51.456;12.626;2023-05-10T09:05:58;21.80;44.90
13332;DHT22;6735;51.456;12.626;2023-05-10T09:08:24;21.50;46.20
13332;DHT22;6735;51.456;12.626;2023-05-10T09:10:54;21.30;46.10
13332;DHT22;6735;51.456;12.626;2023-05-10T09:13:21;21.00;46.90
13332;DHT22;6735;51.456;12.626;2023-05-10T09:15:47;20.70;47.40
13332;DHT22;6735;51.456;12.626;2023-05-10T09:18:13;20.70;47.80
13332;DHT22;6735;51.456;12.626;2023-05-10T09:20:39;20.60;48.30
13332;DHT22;6735;51.456;12.626;2023-05-10T09:23:05;20.40;48.50
13332;DHT22;6735;51.456;12.626;2023-05-10T09:25:31;20.20;49.10
13332;DHT22;6735;51.456;12.626;2023-05-10T09:27:58;20.30;49.10
13332;DHT22;6735;51.456;12.626;2023-05-10T09:30:25;20.30;49.00
13332;DHT22;6735;51.456;12.626;2023-05-10T09:32:51;20.20;49.30
13332;DHT22;6735;51.456;12.626;2023-05-10T09:35:19;20.40;49.20
13332;DHT22;6735;51.456;12.626;2023-05-10T09:37:48;20.50;49.50
13332;DHT22;6735;51.456;12.626;2023-05-10T09:40:19;20.60;49.30
13332;DHT22;6735;51.456;12.626;2023-05-10T09:43:04;20.50;50.20
13332;DHT22;6735;51.456;12.626;2023-05-10T09:45:33;20.50;51.10
13332;DHT22;6735;51.456;12.626;2023-05-10T09:48:00;20.60;50.70
13332;DHT22;6735;51.456;12.626;2023-05-10T09:50:27;20.70;50.40
13332;DHT22;6735;51.456;12.626;2023-05-10T09:52:54;20.20;51.30
13332;DHT22;6735;51.456;12.626;2023-05-10T09:55:43;20.20;51.40
13332;DHT22;6735;51.456;12.626;2023-05-10T09:58:14;20.10;51.80
13332;DHT22;6735;51.456;12.626;2023-05-10T10:00:42;19.80;52.40
13332;DHT22;6735;51.456;12.626;2023-05-10T10:03:14;19.60;53.20
13332;DHT22;6735;51.456;12.626;2023-05-10T10:05:41;19.30;54.10
13332;DHT22;6735;51.456;12.626;2023-05-10T10:08:08;19.10;54.30
13332;DHT22;6735;51.456;12.626;2023-05-10T10:10:33;19.20;54.40
13332;DHT22;6735;51.456;12.626;2023-05-10T10:12:59;19.10;54.90
13332;DHT22;6735;51.456;12.626;2023-05-10T10:15:25;19.00;55.50
13332;DHT22;6735;51.456;12.626;2023-05-10T10:17:52;18.90;55.40
13332;DHT22;6735;51.456;12.626;2023-05-10T10:20:19;19.10;55.40
13332;DHT22;6735;51.456;12.626;2023-05-10T10:22:46;19.00;56.10
13332;DHT22;6735;51.456;12.626;2023-05-10T10:25:14;18.90;56.50
13332;DHT22;6735;51.456;12.626;2023-05-10T10:30:43;18.80;57.10
13332;DHT22;6735;51.456;12.626;2023-05-10T10:35:58;18.70;57.70
13332;DHT22;6735;51.456;12.626;2023-05-10T10:38:25;18.60;58.10
13332;DHT22;6735;51.456;12.626;2023-05-10T10:41:09;18.60;58.30
13332;DHT22;6735;51.456;12.626;2023-05-10T10:43:35;18.70;59.50
13332;DHT22;6735;51.456;12.626;2023-05-10T10:46:16;18.70;59.10
13332;DHT22;6735;51.456;12.626;2023-05-10T10:48:50;18.40;60.90
13332;DHT22;6735;51.456;12.626;2023-05-10T10:51:36;18.20;61.00
13332;DHT22;6735;51.456;12.626;2023-05-10T10:54:09;18.40;60.20
13332;DHT22;6735;51.456;12.626;2023-05-10T10:56:35;18.30;60.60
13332;DHT22;6735;51.456;12.626;2023-05-10T10:59:01;18.50;60.40
13332;DHT22;6735;51.456;12.626;2023-05-10T11:01:32;18.60;60.40
13332;DHT22;6735;51.456;12.626;2023-05-10T11:06:31;18.90;60.20
13332;DHT22;6735;51.456;12.626;2023-05-10T11:08:57;18.90;60.60
13332;DHT22;6735;51.456;12.626;2023-05-10T11:11:22;18.80;60.50
13332;DHT22;6735;51.456;12.626;2023-05-10T11:13:48;18.70;60.90
13332;DHT22;6735;51.456;12.626;2023-05-10T11:16:18;18.60;61.30
13332;DHT22;6735;51.456;12.626;2023-05-10T11:19:07;18.70;61.50
13332;DHT22;6735;51.456;12.626;2023-05-10T11:21:34;18.60;62.50
13332;DHT22;6735;51.456;12.626;2023-05-10T11:24:00;18.20;63.20
13332;DHT22;6735;51.456;12.626;2023-05-10T11:26:32;18.20;63.40
13332;DHT22;6735;51.456;12.626;2023-05-10T11:28:59;18.20;63.70
13332;DHT22;6735;51.456;12.626;2023-05-10T11:31:27;18.20;64.20
13332;DHT22;6735;51.456;12.626;2023-05-10T11:33:55;18.20;63.80
13332;DHT22;6735;51.456;12.626;2023-05-10T11:36:24;18.20;64.20
13332;DHT22;6735;51.456;12.626;2023-05-10T11:38:51;18.00;65.40
13332;DHT22;6735;51.456;12.626;2023-05-10T11:41:18;17.90;65.20
13332;DHT22;6735;51.456;12.626;2023-05-10T11:43:49;17.90;65.50
13332;DHT22;6735;51.456;12.626;2023-05-10T11:46:17;17.90;65.40
13332;DHT22;6735;51.456;12.626;2023-05-10T11:48:43;18.10;65.00
13332;DHT22;6735;51.456;12.626;2023-05-10T11:51:10;17.90;65.40
13332;DHT22;6735;51.456;12.626;2023-05-10T11:53:36;18.00;65.40
13332;DHT22;6735;51.456;12.626;2023-05-10T11:56:09;18.10;65.30
13332;DHT22;6735;51.456;12.626;2023-05-10T11:58:36;18.20;65.00
13332;DHT22;6735;51.456;12.626;2023-05-10T12:01:03;18.20;65.40
13332;DHT22;6735;51.456;12.626;2023-05-10T12:03:30;18.40;65.10
13332;DHT22;6735;51.456;12.626;2023-05-10T12:05:57;18.40;65.40
13332;DHT22;6735;51.456;12.626;2023-05-10T12:08:25;18.40;65.30
13332;DHT22;6735;51.456;12.626;2023-05-10T12:10:51;18.20;65.80
13332;DHT22;6735;51.456;12.626;2023-05-10T12:13:17;18.10;66.80
13332;DHT22;6735;51.456;12.626;2023-05-10T12:15:43;18.10;66.90
13332;DHT22;6735;51.456;12.626;2023-05-10T12:18:10;18.20;66.50
13332;DHT22;6735;51.456;12.626;2023-05-10T12:20:36;18.40;66.20
13332;DHT22;6735;51.456;12.626;2023-05-10T12:23:02;18.50;66.20
13332;DHT22;6735;51.456;12.626;2023-05-10T12:25:33;18.60;65.90
13332;DHT22;6735;51.456;12.626;2023-05-10T12:28:00;18.80;65.60
13332;DHT22;6735;51.456;12.626;2023-05-10T12:30:29;19.00;65.40
13332;DHT22;6735;51.456;12.626;2023-05-10T12:33:02;18.90;65.90
13332;DHT22;6735;51.456;12.626;2023-05-10T12:35:32;18.90;65.90
13332;DHT22;6735;51.456;12.626;2023-05-10T12:37:58;19.00;65.90
13332;DHT22;6735;51.456;12.626;2023-05-10T12:40:24;19.10;65.70
13332;DHT22;6735;51.456;12.626;2023-05-10T12:42:50;19.10;65.20
13332;DHT22;6735;51.456;12.626;2023-05-10T12:45:17;19.00;65.10
13332;DHT22;6735;51.456;12.626;2023-05-10T12:47:43;19.10;65.30
13332;DHT22;6735;51.456;12.626;2023-05-10T12:50:08;19.10;65.30
13332;DHT22;6735;51.456;12.626;2023-05-10T12:52:34;18.90;65.30
13332;DHT22;6735;51.456;12.626;2023-05-10T12:55:00;19.00;65.20
13332;DHT22;6735;51.456;12.626;2023-05-10T12:57:26;18.70;66.10
13332;DHT22;6735;51.456;12.626;2023-05-10T12:59:52;18.30;67.10
13332;DHT22;6735;51.456;12.626;2023-05-10T13:02:17;18.20;67.40
13332;DHT22;6735;51.456;12.626;2023-05-10T13:04:44;18.30;67.40
13332;DHT22;6735;51.456;12.626;2023-05-10T13:07:10;18.20;67.70
13332;DHT22;6735;51.456;12.626;2023-05-10T13:09:35;18.20;68.10
13332;DHT22;6735;51.456;12.626;2023-05-10T13:12:01;18.10;68.60
13332;DHT22;6735;51.456;12.626;2023-05-10T13:14:27;18.10;68.70
13332;DHT22;6735;51.456;12.626;2023-05-10T13:16:53;18.00;69.20
13332;DHT22;6735;51.456;12.626;2023-05-10T13:19:19;18.00;69.10
13332;DHT22;6735;51.456;12.626;2023-05-10T13:21:44;17.90;69.50
13332;DHT22;6735;51.456;12.626;2023-05-10T13:24:11;17.70;70.20
13332;DHT22;6735;51.456;12.626;2023-05-10T13:26:39;17.70;70.30
13332;DHT22;6735;51.456;12.626;2023-05-10T13:29:04;17.70;70.30
13332;DHT22;6735;51.456;12.626;2023-05-10T13:31:30;17.60;71.50
13332;DHT22;6735;51.456;12.626;2023-05-10T13:33:55;17.50;71.40
13332;DHT22;6735;51.456;12.626;2023-05-10T13:36:21;17.40;71.90
13332;DHT22;6735;51.456;12.626;2023-05-10T13:38:48;17.40;71.80
13332;DHT22;6735;51.456;12.626;2023-05-10T13:41:13;17.40;72.00
13332;DHT22;6735;51.456;12.626;2023-05-10T13:43:39;17.50;71.90
13332;DHT22;6735;51.456;12.626;2023-05-10T13:46:04;17.60;71.60
13332;DHT22;6735;51.456;12.626;2023-05-10T13:48:30;17.60;72.20
13332;DHT22;6735;51.456;12.626;2023-05-10T13:50:56;17.60;72.30
13332;DHT22;6735;51.456;12.626;2023-05-10T13:53:21;17.40;72.40
13332;DHT22;6735;51.456;12.626;2023-05-10T13:55:47;17.20;73.20
13332;DHT22;6735;51.456;12.626;2023-05-10T13:58:12;17.20;73.30
13332;DHT22;6735;51.456;12.626;2023-05-10T14:00:38;17.20;73.90
13332;DHT22;6735;51.456;12.626;2023-05-10T14:03:04;17.20;73.90
13332;DHT22;6735;51.456;12.626;2023-05-10T14:05:30;17.20;74.00
13332;DHT22;6735;51.456;12.626;2023-05-10T14:07:56;17.30;73.60
13332;DHT22;6735;51.456;12.626;2023-05-10T14:10:21;17.30;73.80
13332;DHT22;6735;51.456;12.626;2023-05-10T14:12:47;17.30;73.80
13332;DHT22;6735;51.456;12.626;2023-05-10T14:15:12;17.40;73.70
13332;DHT22;6735;51.456;12.626;2023-05-10T14:17:37;17.40;73.30
13332;DHT22;6735;51.456;12.626;2023-05-10T14:20:03;17.50;73.20
13332;DHT22;6735;51.456;12.626;2023-05-10T14:22:29;17.50;73.00
13332;DHT22;6735;51.456;12.626;2023-05-10T14:24:55;17.60;72.80
13332;DHT22;6735;51.456;12.626;2023-05-10T14:27:20;17.60;73.00
13332;DHT22;6735;51.456;12.626;2023-05-10T14:29:47;17.60;73.20
13332;DHT22;6735;51.456;12.626;2023-05-10T14:32:12;17.70;73.00
13332;DHT22;6735;51.456;12.626;2023-05-10T14:34:38;17.90;72.70
13332;DHT22;6735;51.456;12.626;2023-05-10T14:37:03;17.80;72.70
13332;DHT22;6735;51.456;12.626;2023-05-10T14:39:30;18.00;72.30
13332;DHT22;6735;51.456;12.626;2023-05-10T14:41:55;18.00;72.10
13332;DHT22;6735;51.456;12.626;2023-05-10T14:44:21;18.10;72.00
13332;DHT22;6735;51.456;12.626;2023-05-10T14:46:47;18.20;71.70
13332;DHT22;6735;51.456;12.626;2023-05-10T14:49:13;18.20;71.70
13332;DHT22;6735;51.456;12.626;2023-05-10T14:51:39;18.20;71.70
13332;DHT22;6735;51.456;12.626;2023-05-10T14:54:04;18.20;71.60
13332;DHT22;6735;51.456;12.626;2023-05-10T14:56:31;18.20;71.60
13332;DHT22;6735;51.456;12.626;2023-05-10T14:58:56;18.10;71.80
13332;DHT22;6735;51.456;12.626;2023-05-10T15:01:22;18.20;71.60
13332;DHT22;6735;51.456;12.626;2023-05-10T15:03:47;18.20;71.50
13332;DHT22;6735;51.456;12.626;2023-05-10T15:06:14;18.20;70.80
13332;DHT22;6735;51.456;12.626;2023-05-10T15:08:41;18.20;70.90
13332;DHT22;6735;51.456;12.626;2023-05-10T15:11:06;18.20;71.00
13332;DHT22;6735;51.456;12.626;2023-05-10T15:13:32;18.10;70.80
13332;DHT22;6735;51.456;12.626;2023-05-10T15:15:57;18.10;70.60
13332;DHT22;6735;51.456;12.626;2023-05-10T15:18:23;18.20;70.60
13332;DHT22;6735;51.456;12.626;2023-05-10T15:20:48;18.10;70.60
13332;DHT22;6735;51.456;12.626;2023-05-10T15:23:13;18.20;70.60
13332;DHT22;6735;51.456;12.626;2023-05-10T15:25:39;18.10;70.70
13332;DHT22;6735;51.456;12.626;2023-05-10T15:28:04;18.20;70.60
13332;DHT22;6735;51.456;12.626;2023-05-10T15:30:30;18.20;70.70
13332;DHT22;6735;51.456;12.626;2023-05-10T15:32:56;18.10;70.90
13332;DHT22;6735;51.456;12.626;2023-05-10T15:35:21;18.20;70.60
13332;DHT22;6735;51.456;12.626;2023-05-10T15:37:48;18.20;70.70
13332;DHT22;6735;51.456;12.626;2023-05-10T15:40:14;18.20;70.80
13332;DHT22;6735;51.456;12.626;2023-05-10T15:42:40;18.10;70.60
13332;DHT22;6735;51.456;12.626;2023-05-10T15:45:06;18.00;70.60
13332;DHT22;6735;51.456;12.626;2023-05-10T15:47:31;18.00;70.60
13332;DHT22;6735;51.456;12.626;2023-05-10T15:49:58;18.10;70.70